Time;durP1;ratioP1;P1;durP2;ratioP2;P2;SDS_P1;SDS_P2;PMS_P1;PMS_P2;Temp;Humidity;BMP_temperature;BMP_pressure;BME280_temperature;BME280_humidity;BME280_pressure;Samples;Min_cycle;Max_cycle;Signal;HPM_P1;HPM_P2
2022/08/26 00:01:18;;;;;;;4.53;3.20;;;;;;;;;;5053892;28;20206;-81
2022/08/26 00:03:48;;;;;;;4.03;3.22;;;;;;;;;;5053394;28;20312;-81
2022/08/26 00:06:15;;;;;;;3.00;2.80;;;;;;;;;;5052939;28;20292;-81
2022/08/26 00:08:43;;;;;;;4.68;3.55;;;;;;;;;;5052895;28;20253;-81
2022/08/26 00:11:12;;;;;;;4.63;3.53;;;;;;;;;;5053205;28;20208;-81
2022/08/26 00:13:39;;;;;;;3.17;2.90;;;;;;;;;;5053957;28;20682;-81
2022/08/26 00:16:09;;;;;;;6.03;3.63;;;;;;;;;;5053531;28;20225;-81
2022/08/26 00:18:37;;;;;;;3.63;3.22;;;;;;;;;;5053298;28;20237;-81
2022/08/26 00:21:07;;;;;;;4.32;3.30;;;;;;;;;;5053298;28;20224;-81
2022/08/26 00:23:35;;;;;;;3.95;2.58;;;;;;;;;;5053461;28;20671;-81
2022/08/26 00:26:05;;;;;;;3.92;3.53;;;;;;;;;;5053025;28;20388;-81
2022/08/26 00:28:32;;;;;;;4.20;2.80;;;;;;;;;;5052787;28;20706;-81
2022/08/26 00:31:00;;;;;;;6.85;3.40;;;;;;;;;;5052975;28;20233;-81
2022/08/26 00:33:28;;;;;;;3.13;2.80;;;;;;;;;;5052653;28;20696;-80
2022/08/26 00:35:55;;;;;;;5.60;3.78;;;;;;;;;;5052581;28;20292;-80
2022/08/26 00:38:25;;;;;;;3.63;2.97;;;;;;;;;;5052221;28;20280;-82
2022/08/26 00:40:55;;;;;;;9.57;4.03;;;;;;;;;;5053228;28;20205;-81
2022/08/26 00:43:23;;;;;;;4.38;3.40;;;;;;;;;;5051825;28;20248;-81
2022/08/26 00:45:55;;;;;;;5.03;3.03;;;;;;;;;;5052812;28;20201;-81
2022/08/26 00:48:26;;;;;;;3.88;3.58;;;;;;;;;;5052540;28;20584;-80
2022/08/26 00:50:57;;;;;;;3.90;3.50;;;;;;;;;;5052887;28;20225;-80
2022/08/26 00:53:30;;;;;;;5.47;3.17;;;;;;;;;;5081562;23;20753;-78
2022/08/26 00:56:03;;;;;;;3.67;3.38;;;;;;;;;;5035652;28;20254;-81
2022/08/26 00:58:33;;;;;;;4.07;3.55;;;;;;;;;;5047938;28;20221;-81
2022/08/26 01:01:02;;;;;;;7.53;3.83;;;;;;;;;;5055210;28;20205;-81
2022/08/26 01:03:32;;;;;;;5.32;3.88;;;;;;;;;;5055344;28;20694;-81
2022/08/26 01:06:02;;;;;;;3.60;3.13;;;;;;;;;;5069999;22;20229;-81
2022/08/26 01:08:31;;;;;;;6.20;3.72;;;;;;;;;;5052982;28;20232;-82
2022/08/26 01:10:59;;;;;;;8.75;4.88;;;;;;;;;;5053674;28;20240;-81
2022/08/26 01:13:28;;;;;;;11.32;4.30;;;;;;;;;;5053568;28;20243;-81
2022/08/26 01:15:58;;;;;;;4.50;3.70;;;;;;;;;;5053439;28;20623;-81
2022/08/26 01:18:26;;;;;;;4.07;3.70;;;;;;;;;;5053687;28;20209;-81
2022/08/26 01:21:02;;;;;;;5.82;3.72;;;;;;;;;;5053161;28;20209;-81
2022/08/26 01:23:35;;;;;;;5.43;4.03;;;;;;;;;;5053593;28;20232;-81
2022/08/26 01:26:07;;;;;;;4.43;3.40;;;;;;;;;;5053220;28;20308;-81
2022/08/26 01:28:35;;;;;;;7.25;4.03;;;;;;;;;;5053559;28;20206;-81
2022/08/26 01:31:06;;;;;;;5.68;3.90;;;;;;;;;;5054028;28;20240;-81
2022/08/26 01:33:38;;;;;;;8.85;4.03;;;;;;;;;;5053358;28;20252;-81
2022/08/26 01:36:07;;;;;;;4.75;3.53;;;;;;;;;;5053147;28;20249;-81
2022/08/26 01:38:36;;;;;;;5.15;3.80;;;;;;;;;;5053107;28;20270;-82
2022/08/26 01:41:05;;;;;;;5.57;4.43;;;;;;;;;;5053544;28;20229;-81
2022/08/26 01:43:33;;;;;;;6.10;3.55;;;;;;;;;;5053018;28;20193;-81
2022/08/26 01:46:01;;;;;;;6.68;3.95;;;;;;;;;;5052852;28;20256;-81
2022/08/26 01:48:31;;;;;;;7.18;3.72;;;;;;;;;;5053015;28;20712;-81
2022/08/26 01:51:01;;;;;;;7.90;4.85;;;;;;;;;;5052956;28;20325;-81
2022/08/26 01:53:28;;;;;;;5.55;3.97;;;;;;;;;;5054483;28;20229;-82
2022/08/26 01:56:01;;;;;;;5.72;4.13;;;;;;;;;;5056894;28;20653;-81
2022/08/26 01:58:32;;;;;;;9.73;4.93;;;;;;;;;;5057044;28;20201;-82
2022/08/26 02:01:00;;;;;;;7.22;4.57;;;;;;;;;;5056996;28;20670;-82
2022/08/26 02:03:28;;;;;;;5.10;3.92;;;;;;;;;;5056209;28;20237;-82
2022/08/26 02:05:59;;;;;;;6.90;4.50;;;;;;;;;;5056830;28;20332;-82
2022/08/26 02:08:31;;;;;;;8.07;4.65;;;;;;;;;;5056435;28;20194;-82
2022/08/26 02:11:00;;;;;;;6.10;4.07;;;;;;;;;;5056240;28;20296;-81
2022/08/26 02:13:30;;;;;;;6.55;4.20;;;;;;;;;;5056473;28;20221;-82
2022/08/26 02:15:59;;;;;;;5.22;4.13;;;;;;;;;;5056207;28;20255;-81
2022/08/26 02:18:28;;;;;;;6.72;4.25;;;;;;;;;;5056044;28;20212;-81
2022/08/26 02:20:56;;;;;;;5.50;4.13;;;;;;;;;;5056327;28;20229;-81
2022/08/26 02:23:24;;;;;;;6.07;4.15;;;;;;;;;;5056135;28;20198;-82
2022/08/26 02:25:57;;;;;;;8.23;4.72;;;;;;;;;;5055715;28;20240;-82
2022/08/26 02:28:29;;;;;;;4.22;3.63;;;;;;;;;;5055740;28;20332;-82
2022/08/26 02:30:56;;;;;;;5.72;4.15;;;;;;;;;;5056211;28;20186;-82
2022/08/26 02:33:24;;;;;;;5.60;3.95;;;;;;;;;;5055525;28;20244;-82
2022/08/26 02:35:51;;;;;;;8.38;4.60;;;;;;;;;;5056012;28;20255;-81
2022/08/26 02:38:19;;;;;;;4.05;3.53;;;;;;;;;;5056041;28;20288;-82
2022/08/26 02:40:46;;;;;;;7.47;3.88;;;;;;;;;;5055300;28;20289;-81
2022/08/26 02:43:14;;;;;;;6.35;3.92;;;;;;;;;;5055195;28;20237;-82
2022/08/26 02:45:43;;;;;;;3.97;3.42;;;;;;;;;;5055500;28;20293;-82
2022/08/26 02:48:14;;;;;;;6.68;4.63;;;;;;;;;;5055436;28;20234;-81
2022/08/26 02:50:42;;;;;;;5.05;3.70;;;;;;;;;;5055939;28;20202;-81
2022/08/26 02:53:09;;;;;;;5.43;4.05;;;;;;;;;;5055500;28;20576;-81
2022/08/26 02:55:38;;;;;;;6.07;4.03;;;;;;;;;;5055300;28;20237;-81
2022/08/26 02:58:05;;;;;;;4.95;3.47;;;;;;;;;;5055485;28;20213;-81
2022/08/26 03:00:35;;;;;;;5.43;3.85;;;;;;;;;;5055405;28;20208;-81
2022/08/26 03:03:04;;;;;;;7.03;4.05;;;;;;;;;;5055241;28;20196;-81
2022/08/26 03:05:32;;;;;;;7.10;4.35;;;;;;;;;;5054823;28;20626;-81
2022/08/26 03:08:00;;;;;;;6.85;4.90;;;;;;;;;;5054945;28;20260;-81
2022/08/26 03:10:30;;;;;;;4.13;3.70;;;;;;;;;;5055337;28;20253;-81
2022/08/26 03:12:59;;;;;;;10.02;5.35;;;;;;;;;;5055466;28;20202;-81
2022/08/26 03:15:27;;;;;;;6.40;4.03;;;;;;;;;;5055211;28;20597;-81
2022/08/26 03:17:56;;;;;;;6.25;3.63;;;;;;;;;;5055241;28;20221;-81
2022/08/26 03:20:25;;;;;;;4.47;4.07;;;;;;;;;;5054798;28;20225;-81
2022/08/26 03:22:52;;;;;;;7.68;4.10;;;;;;;;;;5054991;28;20277;-81
2022/08/26 03:25:21;;;;;;;4.75;3.78;;;;;;;;;;5054652;28;20237;-81
2022/08/26 03:27:49;;;;;;;4.93;4.05;;;;;;;;;;5054891;28;20694;-81
2022/08/26 03:33:02;;;;;;;5.47;4.40;;;;;;;;;;5054893;28;20200;-81
2022/08/26 03:35:32;;;;;;;6.82;4.38;;;;;;;;;;5054468;28;20205;-82
2022/08/26 03:38:00;;;;;;;6.35;4.88;;;;;;;;;;5054620;28;20222;-81
2022/08/26 03:40:28;;;;;;;6.18;4.28;;;;;;;;;;5053978;28;20233;-81
2022/08/26 03:42:56;;;;;;;5.72;3.80;;;;;;;;;;5054010;28;20238;-82
2022/08/26 03:45:23;;;;;;;5.40;3.30;;;;;;;;;;5053831;28;20288;-81
2022/08/26 03:47:51;;;;;;;8.07;4.13;;;;;;;;;;5053841;28;20261;-81
2022/08/26 03:50:21;;;;;;;6.53;4.10;;;;;;;;;;5054246;28;20731;-81
2022/08/26 03:52:51;;;;;;;4.53;3.95;;;;;;;;;;5054537;28;20221;-81
2022/08/26 03:55:20;;;;;;;7.82;4.80;;;;;;;;;;5053928;28;20247;-81
2022/08/26 03:57:48;;;;;;;6.88;4.20;;;;;;;;;;5053565;28;20221;-81
2022/08/26 04:00:17;;;;;;;6.07;4.40;;;;;;;;;;5054227;28;20233;-82
2022/08/26 04:02:45;;;;;;;7.07;4.38;;;;;;;;;;5054470;28;20228;-81
2022/08/26 04:05:16;;;;;;;4.10;3.70;;;;;;;;;;5054405;28;20229;-81
2022/08/26 04:07:44;;;;;;;5.82;3.80;;;;;;;;;;5053517;28;20291;-81
2022/08/26 04:10:16;;;;;;;5.80;3.83;;;;;;;;;;5054079;28;20625;-81
2022/08/26 04:12:45;;;;;;;5.38;3.75;;;;;;;;;;5054035;28;20217;-82
2022/08/26 04:15:16;;;;;;;6.32;4.85;;;;;;;;;;5054054;28;20194;-81
2022/08/26 04:17:44;;;;;;;5.50;4.55;;;;;;;;;;5054528;28;20260;-81
2022/08/26 04:20:12;;;;;;;4.10;3.80;;;;;;;;;;5053884;28;20202;-81
2022/08/26 04:22:41;;;;;;;4.70;4.00;;;;;;;;;;5053674;28;20289;-81
2022/08/26 04:25:09;;;;;;;4.13;3.08;;;;;;;;;;5053848;28;20296;-82
2022/08/26 04:27:38;;;;;;;5.32;4.15;;;;;;;;;;5053484;28;20271;-81
2022/08/26 04:30:09;;;;;;;6.95;4.07;;;;;;;;;;5053553;28;20257;-82
2022/08/26 04:32:36;;;;;;;14.35;4.78;;;;;;;;;;5054192;28;20202;-81
2022/08/26 04:35:05;;;;;;;4.07;3.78;;;;;;;;;;5054118;28;20208;-81
2022/08/26 04:37:32;;;;;;;5.55;4.38;;;;;;;;;;5053050;28;20220;-81
2022/08/26 04:40:00;;;;;;;5.45;4.57;;;;;;;;;;5053324;28;20248;-81
2022/08/26 04:42:28;;;;;;;7.15;4.63;;;;;;;;;;5053738;28;20240;-81
2022/08/26 04:44:57;;;;;;;7.45;5.07;;;;;;;;;;5053597;28;20197;-81
2022/08/26 04:47:26;;;;;;;5.43;4.45;;;;;;;;;;5054570;28;20218;-81
2022/08/26 04:49:56;;;;;;;5.10;3.97;;;;;;;;;;5053753;28;20284;-81
2022/08/26 04:52:26;;;;;;;6.85;5.22;;;;;;;;;;5053343;28;20224;-81
2022/08/26 04:54:53;;;;;;;6.22;4.65;;;;;;;;;;5053903;28;20194;-82
2022/08/26 04:57:22;;;;;;;9.88;4.82;;;;;;;;;;5054518;28;20709;-81
2022/08/26 04:59:49;;;;;;;5.65;4.40;;;;;;;;;;5052736;28;20210;-81
2022/08/26 05:02:18;;;;;;;6.65;4.15;;;;;;;;;;5052261;28;20197;-81
2022/08/26 05:04:46;;;;;;;4.63;4.13;;;;;;;;;;5052514;28;20221;-81
2022/08/26 05:07:13;;;;;;;6.28;4.18;;;;;;;;;;5010671;28;1100723;-81
2022/08/26 05:09:41;;;;;;;4.93;4.07;;;;;;;;;;5047858;28;20616;-82
2022/08/26 05:12:09;;;;;;;5.28;3.85;;;;;;;;;;5053500;28;20260;-81
2022/08/26 05:14:37;;;;;;;4.75;4.10;;;;;;;;;;5053980;28;20197;-81
2022/08/26 05:17:04;;;;;;;4.88;3.95;;;;;;;;;;5054129;28;20218;-82
2022/08/26 05:19:35;;;;;;;5.50;3.83;;;;;;;;;;5054768;28;20201;-82
2022/08/26 05:22:04;;;;;;;5.50;4.40;;;;;;;;;;5054391;28;20601;-82
2022/08/26 05:24:31;;;;;;;16.25;6.15;;;;;;;;;;5054422;28;20201;-82
2022/08/26 05:26:59;;;;;;;5.65;4.28;;;;;;;;;;5054067;28;20241;-82
2022/08/26 05:29:26;;;;;;;4.07;3.65;;;;;;;;;;5057067;28;20244;-82
2022/08/26 05:31:54;;;;;;;4.38;3.88;;;;;;;;;;5057882;28;20256;-82
2022/08/26 05:34:22;;;;;;;6.20;3.65;;;;;;;;;;5058219;28;20202;-83
2022/08/26 05:36:51;;;;;;;3.90;3.47;;;;;;;;;;5058066;28;20222;-81
2022/08/26 05:39:20;;;;;;;3.25;3.03;;;;;;;;;;5057759;28;20555;-82
2022/08/26 05:41:47;;;;;;;3.92;3.63;;;;;;;;;;5058445;28;20204;-81
2022/08/26 05:44:17;;;;;;;3.63;3.33;;;;;;;;;;5058443;28;20220;-81
2022/08/26 05:46:45;;;;;;;4.53;3.42;;;;;;;;;;5058693;28;20295;-81
2022/08/26 05:49:14;;;;;;;3.50;3.20;;;;;;;;;;5057882;28;20233;-81
2022/08/26 05:51:45;;;;;;;2.83;2.60;;;;;;;;;;5057175;28;20725;-80
2022/08/26 05:54:14;;;;;;;3.10;2.60;;;;;;;;;;5057578;28;20233;-80
2022/08/26 05:56:42;;;;;;;3.08;2.88;;;;;;;;;;5056986;28;20596;-81
2022/08/26 05:59:14;;;;;;;3.60;2.90;;;;;;;;;;5057335;28;20628;-81
2022/08/26 06:01:42;;;;;;;4.38;3.85;;;;;;;;;;5057429;28;20221;-81
2022/08/26 06:04:11;;;;;;;4.07;3.67;;;;;;;;;;5057319;28;20211;-81
2022/08/26 06:06:40;;;;;;;3.13;2.92;;;;;;;;;;5056392;28;20770;-81
2022/08/26 06:09:09;;;;;;;3.88;3.58;;;;;;;;;;5056661;28;20205;-81
2022/08/26 06:11:38;;;;;;;3.20;2.90;;;;;;;;;;5056359;28;20221;-81
2022/08/26 06:14:08;;;;;;;3.58;3.10;;;;;;;;;;5056368;28;20681;-81
2022/08/26 06:16:38;;;;;;;6.13;4.82;;;;;;;;;;5055945;28;20308;-81
2022/08/26 06:19:07;;;;;;;5.40;4.90;;;;;;;;;;5056634;28;20217;-81
2022/08/26 06:21:38;;;;;;;4.35;3.95;;;;;;;;;;5056272;28;20229;-81
2022/08/26 06:27:00;;;;;;;5.45;3.78;;;;;;;;;;5056351;28;20747;-81
2022/08/26 06:29:28;;;;;;;4.43;4.07;;;;;;;;;;5056743;28;20260;-81
2022/08/26 06:31:57;;;;;;;7.03;4.15;;;;;;;;;;5056484;28;20253;-81
2022/08/26 06:34:25;;;;;;;5.70;3.83;;;;;;;;;;5056069;28;20616;-82
2022/08/26 06:36:53;;;;;;;4.80;4.40;;;;;;;;;;5055841;28;20257;-82
2022/08/26 06:39:20;;;;;;;4.20;3.80;;;;;;;;;;5055021;28;20216;-81
2022/08/26 06:41:48;;;;;;;3.83;3.20;;;;;;;;;;5055200;28;20240;-82
2022/08/26 06:44:17;;;;;;;7.07;4.30;;;;;;;;;;5056045;28;20292;-82
2022/08/26 06:46:45;;;;;;;5.10;4.60;;;;;;;;;;5056071;28;20223;-81
2022/08/26 06:49:13;;;;;;;6.00;4.78;;;;;;;;;;5056009;28;20233;-80
2022/08/26 06:51:41;;;;;;;5.95;5.40;;;;;;;;;;5055474;28;20226;-82
2022/08/26 06:54:09;;;;;;;6.85;4.43;;;;;;;;;;5055811;28;20244;-83
2022/08/26 06:56:39;;;;;;;5.63;3.60;;;;;;;;;;5055183;28;20224;-84
2022/08/26 06:59:08;;;;;;;5.60;4.90;;;;;;;;;;5056377;28;20189;-83
2022/08/26 07:01:43;;;;;;;6.95;5.25;;;;;;;;;;5055967;28;20287;-84
2022/08/26 07:04:13;;;;;;;4.57;4.15;;;;;;;;;;5056262;28;20197;-84
2022/08/26 07:06:47;;;;;;;9.05;5.40;;;;;;;;;;5056204;28;20225;-82
2022/08/26 07:09:15;;;;;;;5.75;4.00;;;;;;;;;;5057822;28;20193;-85
2022/08/26 07:11:44;;;;;;;6.18;4.40;;;;;;;;;;5056684;28;20584;-83
2022/08/26 07:14:12;;;;;;;8.52;5.78;;;;;;;;;;5056192;28;20209;-84
2022/08/26 07:16:41;;;;;;;4.97;4.50;;;;;;;;;;5057738;28;20260;-83
2022/08/26 07:19:09;;;;;;;7.32;5.57;;;;;;;;;;5056153;28;20210;-84
2022/08/26 07:21:37;;;;;;;9.07;6.28;;;;;;;;;;5056006;28;20690;-83
2022/08/26 07:24:05;;;;;;;5.63;5.10;;;;;;;;;;5055083;28;20662;-83
2022/08/26 07:26:33;;;;;;;4.88;4.40;;;;;;;;;;5054568;28;20248;-82
2022/08/26 07:29:01;;;;;;;7.15;5.32;;;;;;;;;;5054905;28;20248;-82
2022/08/26 07:31:34;;;;;;;7.45;5.38;;;;;;;;;;5054797;28;20670;-82
2022/08/26 07:34:03;;;;;;;13.95;7.03;;;;;;;;;;5054471;28;20196;-82
2022/08/26 07:36:31;;;;;;;4.90;4.45;;;;;;;;;;5054372;28;20217;-82
2022/08/26 07:38:58;;;;;;;4.45;4.10;;;;;;;;;;5055039;28;20271;-82
2022/08/26 07:41:26;;;;;;;5.00;4.50;;;;;;;;;;5054580;28;20229;-84
2022/08/26 07:43:54;;;;;;;7.07;6.38;;;;;;;;;;5055256;28;20193;-83
2022/08/26 07:46:22;;;;;;;5.28;4.20;;;;;;;;;;5054110;28;20245;-82
2022/08/26 07:48:51;;;;;;;4.65;4.20;;;;;;;;;;5054430;28;20640;-83
2022/08/26 07:51:21;;;;;;;5.00;4.43;;;;;;;;;;5054022;28;20204;-83
2022/08/26 07:53:50;;;;;;;6.45;3.72;;;;;;;;;;5054425;28;20241;-83
2022/08/26 07:56:17;;;;;;;5.40;4.25;;;;;;;;;;5054086;28;20665;-83
2022/08/26 07:58:45;;;;;;;7.63;6.00;;;;;;;;;;5054012;28;20244;-84
2022/08/26 08:01:13;;;;;;;6.70;5.45;;;;;;;;;;5053448;28;20216;-83
2022/08/26 08:03:40;;;;;;;13.45;7.50;;;;;;;;;;5053670;28;20233;-83
2022/08/26 08:06:08;;;;;;;4.70;4.30;;;;;;;;;;5053199;28;20718;-83
2022/08/26 08:08:39;;;;;;;6.55;5.07;;;;;;;;;;5055337;28;20186;-83
2022/08/26 08:11:07;;;;;;;6.53;4.35;;;;;;;;;;5054146;28;20562;-84
2022/08/26 08:13:34;;;;;;;5.53;4.93;;;;;;;;;;5053912;28;20400;-83
2022/08/26 08:16:02;;;;;;;5.05;4.55;;;;;;;;;;5054615;28;20307;-83
2022/08/26 08:18:29;;;;;;;6.90;5.30;;;;;;;;;;5054770;28;20202;-83
2022/08/26 08:21:00;;;;;;;10.85;5.63;;;;;;;;;;5054113;28;20232;-83
2022/08/26 08:23:28;;;;;;;5.47;4.82;;;;;;;;;;5054510;28;20178;-84
2022/08/26 08:26:03;;;;;;;7.00;5.78;;;;;;;;;;5054713;28;20241;-84
2022/08/26 08:28:30;;;;;;;3.50;3.30;;;;;;;;;;5054392;28;20205;-83
2022/08/26 08:30:58;;;;;;;8.40;4.32;;;;;;;;;;5054639;28;20209;-84
2022/08/26 08:33:25;;;;;;;4.30;3.90;;;;;;;;;;5054659;28;20379;-84
2022/08/26 08:35:54;;;;;;;4.68;4.28;;;;;;;;;;5054645;28;20228;-83
2022/08/26 08:38:21;;;;;;;7.57;4.53;;;;;;;;;;5054587;28;20727;-84
2022/08/26 08:40:49;;;;;;;6.97;6.00;;;;;;;;;;5053821;28;20229;-83
2022/08/26 08:43:32;;;;;;;7.45;5.60;;;;;;;;;;5055007;28;20233;-84
2022/08/26 08:46:04;;;;;;;4.40;4.00;;;;;;;;;;5054939;28;20227;-84
2022/08/26 08:48:35;;;;;;;9.05;4.63;;;;;;;;;;5053840;28;20290;-83
2022/08/26 08:51:07;;;;;;;5.97;5.07;;;;;;;;;;5054788;28;20185;-84
2022/08/26 08:53:38;;;;;;;9.80;5.18;;;;;;;;;;5054015;28;20245;-84
2022/08/26 08:56:11;;;;;;;5.28;4.78;;;;;;;;;;5056238;28;20689;-85
2022/08/26 08:58:53;;;;;;;4.72;4.38;;;;;;;;;;5055355;28;20221;-84
2022/08/26 09:01:32;;;;;;;6.18;4.43;;;;;;;;;;5055221;28;20221;-83
2022/08/26 09:04:17;;;;;;;4.82;4.43;;;;;;;;;;5054582;28;20184;-84
2022/08/26 09:06:46;;;;;;;5.97;4.97;;;;;;;;;;5054729;28;20709;-84
2022/08/26 09:09:20;;;;;;;8.15;4.53;;;;;;;;;;5055452;28;20228;-85
2022/08/26 09:11:47;;;;;;;5.53;5.03;;;;;;;;;;5054996;28;20213;-84
2022/08/26 09:14:16;;;;;;;7.10;5.28;;;;;;;;;;5054808;28;20244;-85
2022/08/26 09:16:50;;;;;;;4.78;4.38;;;;;;;;;;5054652;28;20803;-85
2022/08/26 09:19:23;;;;;;;13.60;5.88;;;;;;;;;;5056012;28;20543;-85
2022/08/26 09:21:56;;;;;;;7.13;5.30;;;;;;;;;;5054780;28;20257;-85
2022/08/26 09:24:24;;;;;;;4.75;4.45;;;;;;;;;;5055531;28;20209;-85
2022/08/26 09:26:55;;;;;;;3.58;3.28;;;;;;;;;;5055220;28;20259;-85
2022/08/26 09:29:27;;;;;;;4.53;4.15;;;;;;;;;;5055211;28;20182;-85
2022/08/26 09:32:18;;;;;;;14.85;5.55;;;;;;;;;;5055622;28;20213;-84
2022/08/26 09:34:56;;;;;;;4.97;4.35;;;;;;;;;;5055181;28;20301;-84
2022/08/26 09:37:37;;;;;;;6.03;5.45;;;;;;;;;;5056071;28;20221;-84
2022/08/26 09:40:28;;;;;;;6.97;4.55;;;;;;;;;;5055705;28;20220;-84
2022/08/26 09:43:21;;;;;;;4.45;4.05;;;;;;;;;;5058912;28;20213;-85
2022/08/26 09:45:54;;;;;;;7.63;5.15;;;;;;;;;;5058744;28;20237;-84
2022/08/26 09:48:31;;;;;;;4.45;4.05;;;;;;;;;;5054099;28;20197;-84
2022/08/26 09:51:02;;;;;;;4.57;4.15;;;;;;;;;;5055193;28;20658;-84
2022/08/26 09:53:31;;;;;;;5.85;4.30;;;;;;;;;;5055071;28;20221;-85
2022/08/26 09:56:16;;;;;;;4.03;3.72;;;;;;;;;;5054336;28;20735;-84
2022/08/26 09:58:46;;;;;;;4.28;3.97;;;;;;;;;;5054540;28;20189;-85
2022/08/26 10:01:30;;;;;;;3.97;3.67;;;;;;;;;;5054857;28;20559;-84
2022/08/26 10:04:07;;;;;;;4.80;4.40;;;;;;;;;;5054315;28;20547;-84
2022/08/26 10:06:40;;;;;;;5.45;4.00;;;;;;;;;;5054131;28;20319;-84
2022/08/26 10:09:08;;;;;;;6.55;5.22;;;;;;;;;;5053785;28;20196;-85
2022/08/26 10:11:42;;;;;;;5.53;4.97;;;;;;;;;;5054130;28;20240;-84
2022/08/26 10:14:16;;;;;;;5.35;4.95;;;;;;;;;;5054149;28;20235;-84
2022/08/26 10:16:50;;;;;;;5.13;4.65;;;;;;;;;;5056730;28;20225;-83
2022/08/26 10:19:21;;;;;;;4.53;4.22;;;;;;;;;;5057889;28;20672;-84
2022/08/26 10:21:54;;;;;;;5.10;4.70;;;;;;;;;;5057259;28;20233;-84
2022/08/26 10:24:26;;;;;;;5.57;4.45;;;;;;;;;;5057834;28;20611;-85
2022/08/26 10:27:02;;;;;;;5.05;4.65;;;;;;;;;;5057271;28;20252;-85
2022/08/26 10:29:36;;;;;;;4.55;4.15;;;;;;;;;;5057751;28;20651;-84
2022/08/26 10:32:12;;;;;;;4.25;3.83;;;;;;;;;;5057932;28;20221;-84
2022/08/26 10:34:41;;;;;;;5.32;4.88;;;;;;;;;;5057715;28;20591;-85
2022/08/26 10:37:12;;;;;;;4.75;4.35;;;;;;;;;;5057498;28;20221;-86
2022/08/26 10:39:48;;;;;;;4.07;3.78;;;;;;;;;;5058956;28;20192;-85
2022/08/26 10:42:22;;;;;;;4.50;4.20;;;;;;;;;;5058359;28;20599;-85
2022/08/26 10:44:51;;;;;;;5.10;4.30;;;;;;;;;;5059133;28;20186;-85
2022/08/26 10:47:28;;;;;;;4.72;4.32;;;;;;;;;;5058272;28;20248;-84
2022/08/26 10:49:56;;;;;;;4.90;4.50;;;;;;;;;;5057851;28;20220;-86
2022/08/26 10:52:34;;;;;;;5.00;4.60;;;;;;;;;;5057853;28;20284;-85
2022/08/26 10:55:09;;;;;;;5.45;4.40;;;;;;;;;;5059100;28;20233;-85
2022/08/26 10:57:46;;;;;;;5.88;5.15;;;;;;;;;;5058309;28;20224;-85
2022/08/26 11:03:20;;;;;;;6.25;5.32;;;;;;;;;;5001032;28;20195;-85
2022/08/26 11:06:23;;;;;;;4.50;4.10;;;;;;;;;;5057611;28;20236;-85
2022/08/26 11:08:52;;;;;;;6.55;4.43;;;;;;;;;;5057891;28;20213;-87
2022/08/26 11:11:50;;;;;;;5.00;4.60;;;;;;;;;;5058120;28;20678;-84
2022/08/26 11:14:37;;;;;;;3.97;3.67;;;;;;;;;;5057799;28;20661;-83
2022/08/26 11:17:11;;;;;;;4.13;3.83;;;;;;;;;;5058174;28;20597;-85
2022/08/26 11:20:01;;;;;;;4.35;4.05;;;;;;;;;;5057425;28;20181;-85
2022/08/26 11:22:31;;;;;;;6.22;5.15;;;;;;;;;;5057910;28;20644;-86
2022/08/26 11:25:09;;;;;;;5.63;5.22;;;;;;;;;;5057600;28;20201;-85
2022/08/26 11:28:04;;;;;;;9.13;5.43;;;;;;;;;;5055736;28;20232;-85
2022/08/26 11:30:44;;;;;;;5.63;5.20;;;;;;;;;;5056634;28;20205;-84
2022/08/26 11:33:57;;;;;;;4.78;4.35;;;;;;;;;;5057569;28;20191;-85
2022/08/26 11:36:53;;;;;;;5.20;4.70;;;;;;;;;;5042108;28;20260;-86
2022/08/26 11:39:27;;;;;;;4.97;4.55;;;;;;;;;;5056551;28;20644;-85
2022/08/26 11:41:58;;;;;;;5.88;5.38;;;;;;;;;;5057095;28;20581;-85
2022/08/26 11:44:29;;;;;;;5.72;5.32;;;;;;;;;;5056264;28;20192;-86
2022/08/26 11:46:59;;;;;;;5.50;5.10;;;;;;;;;;5056019;28;20725;-86
2022/08/26 11:49:30;;;;;;;5.95;5.55;;;;;;;;;;5056851;28;20190;-86
2022/08/26 11:52:18;;;;;;;5.65;5.22;;;;;;;;;;5056247;28;20224;-85
2022/08/26 11:55:04;;;;;;;5.72;5.32;;;;;;;;;;5055806;28;20236;-86
2022/08/26 11:57:35;;;;;;;5.45;5.03;;;;;;;;;;5056255;28;20253;-84
2022/08/26 12:00:05;;;;;;;7.03;6.35;;;;;;;;;;5056246;28;20217;-84
2022/08/26 12:02:34;;;;;;;5.63;5.15;;;;;;;;;;5056974;28;20674;-86
2022/08/26 12:05:03;;;;;;;5.13;4.80;;;;;;;;;;5055824;28;20200;-84
2022/08/26 12:07:31;;;;;;;6.43;5.85;;;;;;;;;;5055597;28;20824;-86
2022/08/26 12:10:02;;;;;;;5.63;5.13;;;;;;;;;;5056126;28;20245;-85
2022/08/26 12:12:32;;;;;;;7.10;6.40;;;;;;;;;;5056117;28;20611;-85
2022/08/26 12:15:14;;;;;;;6.25;5.68;;;;;;;;;;5055819;28;20278;-86
2022/08/26 12:17:44;;;;;;;6.03;5.50;;;;;;;;;;5055557;28;20245;-85
2022/08/26 12:20:44;;;;;;;6.55;5.95;;;;;;;;;;5055895;28;20181;-86
2022/08/26 12:23:22;;;;;;;6.30;5.80;;;;;;;;;;5057168;28;20541;-84
2022/08/26 12:25:51;;;;;;;5.80;5.30;;;;;;;;;;5055740;28;20216;-84
2022/08/26 12:28:20;;;;;;;5.85;5.45;;;;;;;;;;5056272;28;20208;-86
2022/08/26 12:31:01;;;;;;;6.65;6.18;;;;;;;;;;5055435;28;20205;-84
2022/08/26 12:33:29;;;;;;;6.28;5.68;;;;;;;;;;5056786;28;20192;-84
2022/08/26 12:35:59;;;;;;;7.20;6.60;;;;;;;;;;5055642;28;20288;-85
2022/08/26 12:38:27;;;;;;;6.03;5.53;;;;;;;;;;5055994;28;20194;-85
2022/08/26 12:40:56;;;;;;;7.47;6.88;;;;;;;;;;5056828;28;20207;-84
2022/08/26 12:43:42;;;;;;;6.32;5.80;;;;;;;;;;5055743;28;20197;-84
2022/08/26 12:46:14;;;;;;;5.53;5.10;;;;;;;;;;5055844;28;20709;-83
2022/08/26 12:48:44;;;;;;;6.72;6.15;;;;;;;;;;5056744;28;20251;-84
2022/08/26 12:51:23;;;;;;;6.18;4.97;;;;;;;;;;5056775;28;20555;-85
2022/08/26 12:53:51;;;;;;;6.90;6.40;;;;;;;;;;5055780;28;20228;-84
2022/08/26 12:56:27;;;;;;;6.50;6.00;;;;;;;;;;5056202;28;20260;-84
2022/08/26 12:59:04;;;;;;;5.53;5.10;;;;;;;;;;5057126;28;20189;-84
2022/08/26 13:01:41;;;;;;;7.72;6.90;;;;;;;;;;5056372;28;20637;-85
2022/08/26 13:04:23;;;;;;;7.60;7.07;;;;;;;;;;5055324;28;20193;-84
2022/08/26 13:07:31;;;;;;;6.97;6.38;;;;;;;;;;5055633;28;20751;-83
2022/08/26 13:10:00;;;;;;;6.75;5.97;;;;;;;;;;5056640;28;20236;-84
2022/08/26 13:12:30;;;;;;;7.07;6.45;;;;;;;;;;5057585;28;20197;-83
2022/08/26 13:14:59;;;;;;;7.78;6.97;;;;;;;;;;5057446;28;20185;-83
2022/08/26 13:17:28;;;;;;;7.10;6.57;;;;;;;;;;5056960;28;20252;-85
2022/08/26 13:19:56;;;;;;;7.63;6.80;;;;;;;;;;5057323;28;20252;-83
2022/08/26 13:22:25;;;;;;;6.65;5.97;;;;;;;;;;5056983;28;20237;-82
2022/08/26 13:24:56;;;;;;;10.00;7.00;;;;;;;;;;5057800;28;20205;-84
2022/08/26 13:27:26;;;;;;;7.68;7.07;;;;;;;;;;5056891;28;20321;-83
2022/08/26 13:29:55;;;;;;;7.35;6.75;;;;;;;;;;5057820;28;20237;-83
2022/08/26 13:32:23;;;;;;;7.00;6.50;;;;;;;;;;5058241;28;20721;-83
2022/08/26 13:34:52;;;;;;;7.78;7.18;;;;;;;;;;5056258;28;20248;-83
2022/08/26 13:37:21;;;;;;;6.95;6.45;;;;;;;;;;5056961;28;20260;-83
2022/08/26 13:39:49;;;;;;;6.88;6.25;;;;;;;;;;5056622;28;20577;-83
2022/08/26 13:42:19;;;;;;;7.10;6.50;;;;;;;;;;5057398;28;20209;-84
2022/08/26 13:44:49;;;;;;;7.90;7.38;;;;;;;;;;5056764;28;20610;-83
2022/08/26 13:47:17;;;;;;;8.30;7.57;;;;;;;;;;5056448;28;20316;-85
2022/08/26 13:49:45;;;;;;;9.90;9.18;;;;;;;;;;5057941;28;20205;-82
2022/08/26 13:52:13;;;;;;;9.48;8.68;;;;;;;;;;5059841;28;20213;-82
2022/08/26 13:54:40;;;;;;;9.07;8.27;;;;;;;;;;5059590;28;20233;-83
2022/08/26 13:57:08;;;;;;;8.57;7.85;;;;;;;;;;5058943;28;20263;-85
2022/08/26 13:59:37;;;;;;;7.57;6.78;;;;;;;;;;5059716;28;20662;-83
2022/08/26 14:02:05;;;;;;;9.40;7.93;;;;;;;;;;5058825;28;20232;-86
2022/08/26 14:04:32;;;;;;;9.10;8.30;;;;;;;;;;5059492;28;20252;-83
2022/08/26 14:07:00;;;;;;;9.93;9.13;;;;;;;;;;5057991;28;20304;-86
2022/08/26 14:09:27;;;;;;;9.55;8.75;;;;;;;;;;5059114;28;20579;-84
2022/08/26 14:11:55;;;;;;;8.98;8.27;;;;;;;;;;5058486;28;20232;-85
2022/08/26 14:14:22;;;;;;;9.55;8.85;;;;;;;;;;5059190;28;20227;-86
2022/08/26 14:16:51;;;;;;;9.27;8.57;;;;;;;;;;5058959;28;20282;-84
2022/08/26 14:19:19;;;;;;;9.98;9.18;;;;;;;;;;5060362;28;20236;-83
2022/08/26 14:21:46;;;;;;;8.98;8.27;;;;;;;;;;5059325;28;20652;-84
2022/08/26 14:24:14;;;;;;;9.25;8.45;;;;;;;;;;5060163;28;20209;-83
2022/08/26 14:26:42;;;;;;;11.73;10.73;;;;;;;;;;5059277;28;20225;-82
2022/08/26 14:29:09;;;;;;;10.00;9.20;;;;;;;;;;5060140;28;20256;-84
2022/08/26 14:31:37;;;;;;;10.95;9.80;;;;;;;;;;5060215;28;20212;-82
2022/08/26 14:34:08;;;;;;;9.35;8.65;;;;;;;;;;5059195;28;20685;-81
2022/08/26 14:36:36;;;;;;;8.48;7.75;;;;;;;;;;5060408;28;20221;-83
2022/08/26 14:39:08;;;;;;;8.43;7.65;;;;;;;;;;5059699;28;20206;-83
2022/08/26 14:41:40;;;;;;;10.90;9.90;;;;;;;;;;5059060;28;20292;-82
2022/08/26 14:44:12;;;;;;;10.07;9.27;;;;;;;;;;5059082;28;20190;-83
2022/08/26 14:46:43;;;;;;;10.25;9.35;;;;;;;;;;5058952;28;20257;-83
2022/08/26 14:49:13;;;;;;;10.23;9.32;;;;;;;;;;5060209;28;20244;-83
2022/08/26 14:51:41;;;;;;;9.07;8.38;;;;;;;;;;5061212;28;20239;-82
2022/08/26 14:54:11;;;;;;;10.00;9.10;;;;;;;;;;5059799;28;20248;-82
2022/08/26 14:56:44;;;;;;;8.90;8.05;;;;;;;;;;5059175;28;20225;-83
2022/08/26 14:59:12;;;;;;;9.13;8.43;;;;;;;;;;5059870;28;20186;-82
2022/08/26 15:01:40;;;;;;;9.50;8.70;;;;;;;;;;5059171;28;20206;-81
2022/08/26 15:04:07;;;;;;;9.38;8.63;;;;;;;;;;5059866;28;20486;-83
2022/08/26 15:06:37;;;;;;;9.25;8.35;;;;;;;;;;5059218;28;20263;-83
2022/08/26 15:09:05;;;;;;;11.90;10.80;;;;;;;;;;5058855;28;20248;-83
2022/08/26 15:11:32;;;;;;;10.18;9.40;;;;;;;;;;5059505;28;20197;-82
2022/08/26 15:14:00;;;;;;;16.20;11.30;;;;;;;;;;5058929;28;20232;-82